createdAt,value
2018-04-17T00:01:11.638Z,90.10
2018-04-17T00:03:39.099Z,90.40
2018-04-17T00:06:06.552Z,90.60
2018-04-17T00:08:34.018Z,90.70
2018-04-17T00:11:01.495Z,90.90
2018-04-17T00:13:28.951Z,91.00
2018-04-17T00:15:56.412Z,91.50
2018-04-17T00:18:23.923Z,91.50
2018-04-17T00:20:51.375Z,91.60
2018-04-17T00:23:18.853Z,91.60
2018-04-17T00:25:46.309Z,91.70
2018-04-17T00:28:13.777Z,91.80
2018-04-17T00:30:41.237Z,91.80
2018-04-17T00:33:08.697Z,91.90
2018-04-17T00:35:36.186Z,92.00
2018-04-17T00:38:03.651Z,92.10
2018-04-17T00:40:31.114Z,92.10
2018-04-17T00:42:58.578Z,92.50
2018-04-17T00:45:26.041Z,92.00
2018-04-17T00:47:53.517Z,92.00
2018-04-17T00:50:20.979Z,92.00
2018-04-17T00:52:48.438Z,92.10
2018-04-17T00:55:15.903Z,92.20
2018-04-17T00:57:43.353Z,92.50
2018-04-17T01:00:10.841Z,92.50
2018-04-17T01:02:38.311Z,92.50
2018-04-17T01:05:05.767Z,92.50
2018-04-17T01:07:33.239Z,92.40
2018-04-17T01:10:00.691Z,92.50
2018-04-17T01:12:28.176Z,92.40
2018-04-17T01:14:55.625Z,92.50
2018-04-17T01:17:23.084Z,92.60
2018-04-17T01:19:50.546Z,92.90
2018-04-17T01:22:18.014Z,92.90
2018-04-17T01:24:45.487Z,92.80
2018-04-17T01:27:12.948Z,93.10
2018-04-17T01:29:40.415Z,93.20
2018-04-17T01:32:07.874Z,93.30
2018-04-17T01:34:35.338Z,93.40
2018-04-17T01:37:02.819Z,93.50
2018-04-17T01:39:30.276Z,93.60
2018-04-17T01:41:57.746Z,93.70
2018-04-17T01:44:25.213Z,93.80
2018-04-17T01:46:53.450Z,94.30
2018-04-17T01:49:20.924Z,94.00
2018-04-17T01:51:48.391Z,94.00
2018-04-17T01:54:15.841Z,93.90
2018-04-17T01:56:43.309Z,94.20
2018-04-17T01:59:10.775Z,94.10
2018-04-17T02:01:38.260Z,94.10
2018-04-17T02:04:05.735Z,94.20
2018-04-17T02:06:33.186Z,94.30
2018-04-17T02:09:00.655Z,94.40
2018-04-17T02:11:28.116Z,94.40
2018-04-17T02:13:55.591Z,94.60
2018-04-17T02:16:23.830Z,94.60
2018-04-17T02:18:51.293Z,94.60
2018-04-17T02:21:18.774Z,94.70
2018-04-17T02:23:46.247Z,94.70
2018-04-17T02:26:13.728Z,95.00
2018-04-17T02:28:41.185Z,95.00
2018-04-17T02:31:08.654Z,95.00
2018-04-17T02:33:36.114Z,95.00
2018-04-17T02:36:03.575Z,95.00
2018-04-17T02:38:31.046Z,95.00
2018-04-17T02:40:59.289Z,95.10
2018-04-17T02:43:27.515Z,95.30
2018-04-17T02:45:55.742Z,95.30
2018-04-17T02:48:23.199Z,95.30
2018-04-17T02:50:50.692Z,95.30
2018-04-17T02:53:18.163Z,95.40
2018-04-17T02:55:45.630Z,95.30
2018-04-17T02:58:13.104Z,95.40
2018-04-17T03:00:41.345Z,95.50
2018-04-17T03:03:08.837Z,95.50
2018-04-17T03:05:36.315Z,95.60
2018-04-17T03:08:04.557Z,95.50
2018-04-17T03:10:32.026Z,95.50
2018-04-17T03:12:59.494Z,95.60
2018-04-17T03:15:26.984Z,95.60
2018-04-17T03:17:55.213Z,95.70
2018-04-17T03:20:22.667Z,95.70
2018-04-17T03:22:50.165Z,95.80
2018-04-17T03:25:17.640Z,95.80
2018-04-17T03:27:45.132Z,96.00
2018-04-17T03:30:13.370Z,96.20
2018-04-17T03:32:40.837Z,96.20
2018-04-17T03:35:08.302Z,96.30
2018-04-17T03:37:35.784Z,96.30
2018-04-17T03:40:03.273Z,96.40
2018-04-17T03:42:30.747Z,96.50
2018-04-17T03:44:58.224Z,96.50
2018-04-17T03:47:25.690Z,96.60
2018-04-17T03:49:53.159Z,96.50
2018-04-17T03:52:20.648Z,96.60
2018-04-17T03:54:48.132Z,96.50
2018-04-17T03:57:15.589Z,96.50
2018-04-17T03:59:43.055Z,96.50
2018-04-17T04:02:10.532Z,96.60
2018-04-17T04:04:38.775Z,96.90
2018-04-17T04:07:06.249Z,96.90
2018-04-17T04:09:33.714Z,97.00
2018-04-17T04:12:01.171Z,97.30
2018-04-17T04:14:28.640Z,97.20
2018-04-17T04:17:07.984Z,97.10
2018-04-17T04:19:47.267Z,97.30
2018-04-17T04:22:26.630Z,97.30
2018-04-17T04:28:05.377Z,97.40
2018-04-17T04:30:32.845Z,97.40
2018-04-17T04:33:00.321Z,97.40
2018-04-17T04:35:28.551Z,97.50
2018-04-17T04:37:56.011Z,97.50
2018-04-17T04:40:23.501Z,97.60
2018-04-17T04:42:50.977Z,97.60
2018-04-17T04:45:18.441Z,97.50
2018-04-17T04:47:45.916Z,97.60
2018-04-17T04:50:13.380Z,97.70
2018-04-17T04:52:41.645Z,97.70
2018-04-17T04:55:09.116Z,97.70
2018-04-17T04:57:36.632Z,97.70
2018-04-17T05:00:04.069Z,97.80
2018-04-17T05:02:31.548Z,97.80
2018-04-17T05:04:59.032Z,97.70
2018-04-17T05:07:26.489Z,97.80
2018-04-17T05:09:53.961Z,97.80
2018-04-17T05:12:21.417Z,97.70
2018-04-17T05:14:48.882Z,97.70
2018-04-17T05:17:16.367Z,97.60
2018-04-17T05:19:43.822Z,97.60
2018-04-17T05:22:11.291Z,97.60
2018-04-17T05:24:38.770Z,97.60
2018-04-17T05:27:06.253Z,97.50
2018-04-17T05:29:34.513Z,97.80
2018-04-17T05:32:01.978Z,97.40
2018-04-17T05:34:29.450Z,97.50
2018-04-17T05:36:56.926Z,97.40
2018-04-17T05:39:24.395Z,97.40
2018-04-17T05:41:52.638Z,97.40
2018-04-17T05:44:20.097Z,97.40
2018-04-17T05:46:47.570Z,97.30
2018-04-17T05:49:15.038Z,97.20
2018-04-17T05:51:42.490Z,97.30
2018-04-17T05:54:09.969Z,97.10
2018-04-17T05:56:37.439Z,97.20
2018-04-17T05:59:04.907Z,97.00
2018-04-17T06:01:32.366Z,96.90
2018-04-17T06:03:59.837Z,96.90
2018-04-17T06:06:27.323Z,96.90
2018-04-17T06:08:55.546Z,96.70
2018-04-17T06:13:56.801Z,96.70
2018-04-17T06:16:24.273Z,96.50
2018-04-17T06:18:51.749Z,96.30
2018-04-17T06:21:19.215Z,96.10
2018-04-17T06:23:46.682Z,96.10
2018-04-17T06:26:14.156Z,96.00
2018-04-17T06:28:41.608Z,95.80
2018-04-17T06:31:09.082Z,95.90
2018-04-17T06:33:36.556Z,95.60
2018-04-17T06:36:04.018Z,95.10
2018-04-17T06:38:31.476Z,94.20
2018-04-17T06:40:58.943Z,92.70
2018-04-17T06:43:26.430Z,91.50
2018-04-17T06:45:54.662Z,90.60
2018-04-17T06:48:22.124Z,90.60
2018-04-17T06:50:49.626Z,90.60
2018-04-17T06:53:17.113Z,90.70
2018-04-17T06:55:45.369Z,90.80
2018-04-17T06:58:12.849Z,90.80
2018-04-17T07:00:41.074Z,91.30
2018-04-17T07:03:08.548Z,91.30
2018-04-17T07:05:36.026Z,91.10
2018-04-17T07:08:06.717Z,91.00
2018-04-17T07:10:34.184Z,91.10
2018-04-17T07:13:01.677Z,90.80
2018-04-17T07:15:29.146Z,90.40
2018-04-17T07:17:56.626Z,90.10
2018-04-17T07:20:24.091Z,90.10
2018-04-17T07:22:51.571Z,90.30
2018-04-17T07:25:19.800Z,89.10
2018-04-17T07:27:47.268Z,89.10
2018-04-17T07:30:14.737Z,88.40
2018-04-17T07:32:42.200Z,88.30
2018-04-17T07:35:09.671Z,87.90
2018-04-17T07:37:37.129Z,87.10
2018-04-17T07:40:04.607Z,86.50
2018-04-17T07:42:32.062Z,85.90
2018-04-17T07:44:59.525Z,85.70
2018-04-17T07:47:29.931Z,85.70
2018-04-17T07:49:57.371Z,85.50
2018-04-17T07:52:25.597Z,83.90
2018-04-17T07:54:53.082Z,83.90
2018-04-17T07:57:20.542Z,82.70
2018-04-17T07:59:48.013Z,82.70
2018-04-17T08:02:15.492Z,82.40
2018-04-17T08:04:42.966Z,82.20
2018-04-17T08:07:11.208Z,81.90
2018-04-17T08:09:38.674Z,81.80
2018-04-17T08:12:06.134Z,81.70
2018-04-17T08:14:33.603Z,81.20
2018-04-17T08:17:01.842Z,78.70
2018-04-17T08:19:29.317Z,78.60
2018-04-17T08:21:56.797Z,77.80
2018-04-17T08:24:24.254Z,78.10
2018-04-17T08:26:51.721Z,78.30
2018-04-17T08:29:19.186Z,77.70
2018-04-17T08:31:46.667Z,76.70
2018-04-17T08:34:14.129Z,75.90
2018-04-17T08:36:41.611Z,74.60
2018-04-17T08:39:09.079Z,75.10
2018-04-17T08:41:36.543Z,74.60
2018-04-17T08:44:04.785Z,72.90
2018-04-17T08:46:32.248Z,72.90
2018-04-17T08:48:59.754Z,69.60
2018-04-17T08:51:27.201Z,67.70
2018-04-17T08:53:54.658Z,68.70
2018-04-17T08:56:22.165Z,67.80
2018-04-17T08:58:49.627Z,66.80
2018-04-17T09:01:17.089Z,67.40
2018-04-17T09:03:44.555Z,66.00
2018-04-17T09:06:12.026Z,65.10
2018-04-17T09:08:39.522Z,64.70
2018-04-17T09:11:06.981Z,64.50
2018-04-17T09:13:34.443Z,61.70
2018-04-17T09:16:01.904Z,61.00
2018-04-17T09:18:29.370Z,60.10
2018-04-17T09:20:56.865Z,59.80
2018-04-17T09:23:24.318Z,58.40
2018-04-17T09:25:51.780Z,58.40
2018-04-17T09:28:19.241Z,58.70
2018-04-17T09:30:46.721Z,58.10
2018-04-17T09:33:14.205Z,59.20
2018-04-17T09:35:42.438Z,59.10
2018-04-17T09:38:09.893Z,59.00
2018-04-17T09:40:37.356Z,59.00
2018-04-17T09:43:04.833Z,58.40
2018-04-17T09:45:32.313Z,59.40
2018-04-17T09:47:59.772Z,58.00
2018-04-17T09:50:27.237Z,57.60
2018-04-17T09:52:54.699Z,56.00
2018-04-17T09:55:22.170Z,55.40
2018-04-17T09:57:49.637Z,55.60
2018-04-17T10:00:17.101Z,55.70
2018-04-17T10:02:44.561Z,56.00
2018-04-17T10:05:12.020Z,54.70
2018-04-17T10:07:39.486Z,54.80
2018-04-17T10:10:07.021Z,55.50
2018-04-17T10:12:35.205Z,55.30
2018-04-17T10:15:02.679Z,55.30
2018-04-17T10:17:30.127Z,53.70
2018-04-17T10:19:57.599Z,53.00
2018-04-17T10:22:25.073Z,52.40
2018-04-17T10:24:52.531Z,53.10
2018-04-17T10:27:20.008Z,54.40
2018-04-17T10:29:47.526Z,54.40
2018-04-17T10:32:14.964Z,54.40
2018-04-17T10:34:43.220Z,53.00
2018-04-17T10:37:10.671Z,53.00
2018-04-17T10:39:38.214Z,53.20
2018-04-17T10:42:05.598Z,50.90
2018-04-17T10:44:33.828Z,52.30
2018-04-17T10:47:01.311Z,52.30
2018-04-17T10:49:28.781Z,53.10
2018-04-17T10:51:56.243Z,52.00
2018-04-17T10:54:23.714Z,50.40
2018-04-17T10:56:51.197Z,51.20
2018-04-17T10:59:18.682Z,51.60
2018-04-17T11:01:46.140Z,51.00
2018-04-17T11:04:13.594Z,51.00
2018-04-17T11:06:41.048Z,50.60
2018-04-17T11:09:08.513Z,49.20
2018-04-17T11:11:35.998Z,49.00
2018-04-17T11:14:03.452Z,52.80
2018-04-17T11:16:30.912Z,50.50
2018-04-17T11:18:58.382Z,52.00
2018-04-17T11:21:25.837Z,52.90
2018-04-17T11:23:53.333Z,52.30
2018-04-17T11:26:21.563Z,52.70
2018-04-17T11:28:49.021Z,52.60
2018-04-17T11:31:16.500Z,52.70
2018-04-17T11:33:43.972Z,50.30
2018-04-17T11:36:11.445Z,48.80
2018-04-17T11:38:38.911Z,48.00
2018-04-17T11:41:06.382Z,47.30
2018-04-17T11:43:33.845Z,46.40
2018-04-17T11:46:01.309Z,45.10
2018-04-17T11:48:29.544Z,46.50
2018-04-17T11:50:57.016Z,47.00
2018-04-17T11:53:24.483Z,49.00
2018-04-17T11:55:51.954Z,47.00
2018-04-17T11:58:19.408Z,47.60
2018-04-17T12:00:46.895Z,47.40
2018-04-17T12:03:14.364Z,48.10
2018-04-17T12:05:41.837Z,49.30
2018-04-17T12:08:09.298Z,50.60
2018-04-17T12:10:36.762Z,48.00
2018-04-17T12:13:04.238Z,48.30
2018-04-17T12:15:32.456Z,47.50
2018-04-17T12:17:59.934Z,47.50
2018-04-17T12:20:27.452Z,47.60
2018-04-17T12:22:54.894Z,47.70
2018-04-17T12:25:22.387Z,45.30
2018-04-17T12:27:49.850Z,46.00
2018-04-17T12:30:17.307Z,47.60
2018-04-17T12:32:45.543Z,46.70
2018-04-17T12:35:13.008Z,46.70
2018-04-17T12:37:40.502Z,46.50
2018-04-17T12:40:08.729Z,46.60
2018-04-17T12:42:36.180Z,46.60
2018-04-17T12:45:03.645Z,48.00
2018-04-17T12:47:31.122Z,47.80
2018-04-17T12:49:58.594Z,47.40
2018-04-17T12:52:26.058Z,48.00
2018-04-17T12:54:53.547Z,47.70
2018-04-17T12:57:21.036Z,47.30
2018-04-17T12:59:49.272Z,47.60
2018-04-17T13:02:16.776Z,47.60
2018-04-17T13:04:45.015Z,47.60
2018-04-17T13:07:12.473Z,47.50
2018-04-17T13:09:39.938Z,47.30
2018-04-17T13:12:07.413Z,48.30
2018-04-17T13:14:34.883Z,46.30
2018-04-17T13:17:02.362Z,49.60
2018-04-17T13:19:29.825Z,49.90
2018-04-17T13:21:57.288Z,50.50
2018-04-17T13:24:24.754Z,46.80
2018-04-17T13:26:52.233Z,47.80
2018-04-17T13:29:20.473Z,49.70
2018-04-17T13:31:47.934Z,49.70
2018-04-17T13:34:15.390Z,48.40
2018-04-17T13:36:42.848Z,47.50
2018-04-17T13:39:10.316Z,47.10
2018-04-17T13:41:37.777Z,48.40
2018-04-17T13:44:05.252Z,46.10
2018-04-17T13:46:32.718Z,45.40
2018-04-17T13:49:00.195Z,46.00
2018-04-17T13:51:27.705Z,45.60
2018-04-17T13:53:55.169Z,47.10
2018-04-17T13:56:22.644Z,45.20
2018-04-17T13:58:50.109Z,44.90
2018-04-17T14:01:17.578Z,45.20
2018-04-17T14:03:45.065Z,45.90
2018-04-17T14:06:12.520Z,45.20
2018-04-17T14:08:39.996Z,45.70
2018-04-17T14:11:07.465Z,47.10
2018-04-17T14:13:34.931Z,45.30
2018-04-17T14:16:02.418Z,45.20
2018-04-17T14:18:30.651Z,44.00
2018-04-17T14:20:58.126Z,44.00
2018-04-17T14:23:26.346Z,46.20
2018-04-17T14:25:54.585Z,47.50
2018-04-17T14:28:22.077Z,47.50
2018-04-17T14:30:49.548Z,47.60
2018-04-17T14:33:17.783Z,46.90
2018-04-17T14:35:45.254Z,46.90
2018-04-17T14:38:12.717Z,48.10
2018-04-17T14:40:40.214Z,46.80
2018-04-17T14:43:07.734Z,44.80
2018-04-17T14:45:35.922Z,44.20
2018-04-17T14:48:03.388Z,44.30
2018-04-17T14:50:30.855Z,44.30
2018-04-17T14:52:58.345Z,45.00
2018-04-17T14:55:25.814Z,45.80
2018-04-17T14:57:53.275Z,44.80
2018-04-17T15:00:20.743Z,45.20
2018-04-17T15:02:48.201Z,45.10
2018-04-17T15:05:15.679Z,46.00
2018-04-17T15:07:43.901Z,45.00
2018-04-17T15:10:11.365Z,45.00
2018-04-17T15:12:38.824Z,44.30
2018-04-17T15:15:06.292Z,43.50
2018-04-17T15:17:33.788Z,43.90
2018-04-17T15:20:01.251Z,43.90
2018-04-17T15:22:28.720Z,44.70
2018-04-17T15:24:56.190Z,44.80
2018-04-17T15:27:23.645Z,44.20
2018-04-17T15:29:51.155Z,44.00
2018-04-17T15:32:18.618Z,44.20
2018-04-17T15:34:46.081Z,44.80
2018-04-17T15:37:13.551Z,44.50
2018-04-17T15:39:41.031Z,45.00
2018-04-17T15:42:08.529Z,44.70
2018-04-17T15:44:35.999Z,44.70
2018-04-17T15:47:03.463Z,44.00
2018-04-17T15:49:30.940Z,45.00
2018-04-17T15:51:59.183Z,43.90
2018-04-17T15:54:26.667Z,43.90
2018-04-17T15:56:54.129Z,44.60
2018-04-17T15:59:21.586Z,44.90
2018-04-17T16:01:49.051Z,43.70
2018-04-17T16:04:16.516Z,43.60
2018-04-17T16:06:43.995Z,43.90
2018-04-17T16:09:11.454Z,43.90
2018-04-17T16:11:39.702Z,44.20
2018-04-17T16:14:07.154Z,43.70
2018-04-17T16:16:34.627Z,43.90
2018-04-17T16:19:02.114Z,43.50
2018-04-17T16:21:29.630Z,43.80
2018-04-17T16:23:57.067Z,44.00
2018-04-17T16:26:25.302Z,44.10
2018-04-17T16:28:52.767Z,44.10
2018-04-17T16:31:20.253Z,44.40
2018-04-17T16:33:47.735Z,44.10
2018-04-17T16:36:15.185Z,43.60
2018-04-17T16:38:42.648Z,45.40
2018-04-17T16:41:10.161Z,44.40
2018-04-17T16:43:37.600Z,43.90
2018-04-17T16:46:05.818Z,44.20
2018-04-17T16:48:33.285Z,44.10
2018-04-17T16:51:00.749Z,43.70
2018-04-17T16:53:28.204Z,44.30
2018-04-17T16:55:55.692Z,44.00
2018-04-17T16:58:23.160Z,43.20
2018-04-17T17:00:51.386Z,43.00
2018-04-17T17:03:18.961Z,43.00
2018-04-17T17:05:46.419Z,42.60
2018-04-17T17:08:13.909Z,42.90
2018-04-17T17:10:41.375Z,43.00
2018-04-17T17:13:08.836Z,42.30
2018-04-17T17:15:36.301Z,42.20
2018-04-17T17:18:03.760Z,42.20
2018-04-17T17:20:31.248Z,42.40
2018-04-17T17:22:58.719Z,42.50
2018-04-17T17:25:26.180Z,42.60
2018-04-17T17:27:53.647Z,42.40
2018-04-17T17:30:21.132Z,42.30
2018-04-17T17:32:48.603Z,42.10
2018-04-17T17:35:16.834Z,43.10
2018-04-17T17:37:44.310Z,42.50
2018-04-17T17:40:11.779Z,44.50
2018-04-17T17:42:39.263Z,45.10
2018-04-17T17:45:06.765Z,45.70
2018-04-17T17:47:34.250Z,46.20
2018-04-17T17:50:01.708Z,47.00
2018-04-17T17:52:29.184Z,47.70
2018-04-17T17:54:56.653Z,48.30
2018-04-17T17:57:24.195Z,48.80
2018-04-17T17:59:51.643Z,49.50
2018-04-17T18:02:19.103Z,50.10
2018-04-17T18:04:46.588Z,50.60
2018-04-17T18:07:14.063Z,51.00
2018-04-17T18:09:41.557Z,52.40
2018-04-17T18:12:09.049Z,52.00
2018-04-17T18:14:37.269Z,52.80
2018-04-17T18:17:04.735Z,52.70
2018-04-17T18:19:32.194Z,53.10
2018-04-17T18:21:59.705Z,53.50
2018-04-17T18:24:27.161Z,53.80
2018-04-17T18:26:54.646Z,54.30
2018-04-17T18:29:22.876Z,54.90
2018-04-17T18:31:50.347Z,54.90
2018-04-17T18:34:17.832Z,55.30
2018-04-17T18:36:45.303Z,55.80
2018-04-17T18:39:13.597Z,56.90
2018-04-17T18:41:41.092Z,56.90
2018-04-17T18:44:08.561Z,57.60
2018-04-17T18:46:36.042Z,58.10
2018-04-17T18:49:03.513Z,58.70
2018-04-17T18:51:30.984Z,59.10
2018-04-17T18:53:58.449Z,59.40
2018-04-17T18:56:25.916Z,60.00
2018-04-17T18:58:53.415Z,60.30
2018-04-17T19:01:21.675Z,61.40
2018-04-17T19:03:49.136Z,61.40
2018-04-17T19:06:16.603Z,61.80
2018-04-17T19:08:44.858Z,63.00
2018-04-17T19:11:13.111Z,63.20
2018-04-17T19:13:40.591Z,63.90
2018-04-17T19:16:08.067Z,63.50
2018-04-17T19:18:35.566Z,64.00
2018-04-17T19:21:03.811Z,64.60
2018-04-17T19:23:31.299Z,64.40
2018-04-17T19:25:59.554Z,65.30
2018-04-17T19:28:27.819Z,65.20
2018-04-17T19:30:55.299Z,65.20
2018-04-17T19:33:22.802Z,65.50
2018-04-17T19:35:51.053Z,66.40
2018-04-17T19:38:18.600Z,67.00
2018-04-17T19:40:46.047Z,66.50
2018-04-17T19:43:13.514Z,66.80
2018-04-17T19:45:40.996Z,66.70
2018-04-17T19:48:09.362Z,67.00
2018-04-17T19:50:36.840Z,67.10
2018-04-17T19:53:04.306Z,67.80
2018-04-17T19:55:31.792Z,67.70
2018-04-17T19:57:59.288Z,68.00
2018-04-17T20:00:27.552Z,67.70
2018-04-17T20:02:55.015Z,67.60
2018-04-17T20:05:22.475Z,67.60
2018-04-17T20:07:49.960Z,68.40
2018-04-17T20:10:18.227Z,67.80
2018-04-17T20:12:45.715Z,67.80
2018-04-17T20:15:13.214Z,68.00
2018-04-17T20:17:40.694Z,67.90
2018-04-17T20:20:08.176Z,68.10
2018-04-17T20:22:36.430Z,69.10
2018-04-17T20:25:03.928Z,69.00
2018-04-17T20:27:32.154Z,69.50
2018-04-17T20:29:59.631Z,69.50
2018-04-17T20:32:27.098Z,70.40
2018-04-17T20:34:54.575Z,70.10
2018-04-17T20:37:22.206Z,70.70
2018-04-17T20:39:49.669Z,71.10
2018-04-17T20:42:17.168Z,72.00
2018-04-17T20:44:44.600Z,72.40
2018-04-17T20:47:12.086Z,72.80
2018-04-17T20:49:39.589Z,73.00
2018-04-17T20:52:07.818Z,73.60
2018-04-17T20:54:35.291Z,73.60
2018-04-17T20:57:02.854Z,74.20
2018-04-17T20:59:30.335Z,75.20
2018-04-17T21:01:57.814Z,75.70
2018-04-17T21:04:25.313Z,76.20
2018-04-17T21:06:53.553Z,76.70
2018-04-17T21:09:21.022Z,76.70
2018-04-17T21:11:48.500Z,77.10
2018-04-17T21:14:16.741Z,78.40
2018-04-17T21:16:44.212Z,77.60
2018-04-17T21:19:11.674Z,77.90
2018-04-17T21:21:39.137Z,78.30
2018-04-17T21:24:06.610Z,78.70
2018-04-17T21:26:34.090Z,79.00
2018-04-17T21:29:01.551Z,79.30
2018-04-17T21:31:29.052Z,79.50
2018-04-17T21:33:56.537Z,79.80
2018-04-17T21:36:23.999Z,80.20
2018-04-17T21:38:51.476Z,80.70
2018-04-17T21:41:18.942Z,81.10
2018-04-17T21:43:46.427Z,81.20
2018-04-17T21:46:13.889Z,81.00
2018-04-17T21:48:41.362Z,80.80
2018-04-17T21:51:08.863Z,80.60
2018-04-17T21:53:36.332Z,80.20
2018-04-17T21:56:03.799Z,80.20
2018-04-17T21:58:31.277Z,80.30
2018-04-17T22:00:58.738Z,80.20
2018-04-17T22:03:26.237Z,81.00
2018-04-17T22:05:53.707Z,81.10
2018-04-17T22:08:21.161Z,81.40
2018-04-17T22:10:48.636Z,81.70
2018-04-17T22:13:16.089Z,81.80
2018-04-17T22:15:43.574Z,81.90
2018-04-17T22:18:11.808Z,82.00
2018-04-17T22:20:39.283Z,81.90
2018-04-17T22:23:06.754Z,82.30
2018-04-17T22:25:34.221Z,82.60
2018-04-17T22:28:01.717Z,82.60
2018-04-17T22:30:29.939Z,83.40
2018-04-17T22:32:57.412Z,83.40
2018-04-17T22:35:24.867Z,83.80
2018-04-17T22:37:52.342Z,84.10
2018-04-17T22:40:19.840Z,84.50
2018-04-17T22:42:47.313Z,84.60
2018-04-17T22:45:15.567Z,86.00
2018-04-17T22:47:43.030Z,86.00
2018-04-17T22:50:10.513Z,86.60
2018-04-17T22:52:37.992Z,86.90
2018-04-17T22:55:06.227Z,87.10
2018-04-17T22:57:34.469Z,87.50
2018-04-17T23:00:01.933Z,87.50
2018-04-17T23:02:29.410Z,87.70
2018-04-17T23:04:56.890Z,88.10
2018-04-17T23:07:24.357Z,89.40
2018-04-17T23:09:51.828Z,89.10
2018-04-17T23:12:19.298Z,89.00
2018-04-17T23:14:46.769Z,89.50
2018-04-17T23:17:14.256Z,89.40
2018-04-17T23:19:42.492Z,89.50
2018-04-17T23:22:10.006Z,89.50
2018-04-17T23:24:37.426Z,90.00
2018-04-17T23:27:04.900Z,89.90
2018-04-17T23:29:32.391Z,90.00
2018-04-17T23:32:00.621Z,90.00
2018-04-17T23:34:28.092Z,90.00
2018-04-17T23:36:55.559Z,90.00
2018-04-17T23:39:23.021Z,90.10
2018-04-17T23:41:50.506Z,90.00
2018-04-17T23:44:17.974Z,90.00
2018-04-17T23:46:45.498Z,90.20
2018-04-17T23:49:13.688Z,90.50
2018-04-17T23:51:41.171Z,90.40
2018-04-17T23:54:08.656Z,90.70
2018-04-17T23:56:36.891Z,90.80
2018-04-17T23:59:04.353Z,90.80
